Time;durP1;ratioP1;P1;durP2;ratioP2;P2;SDS_P1;SDS_P2;PMS_P1;PMS_P2;Temp;Humidity;BMP_temperature;BMP_pressure;BME280_temperature;BME280_humidity;BME280_pressure;Samples;Min_cycle;Max_cycle;Signal;HPM_P1;HPM_P2
2021/10/18 00:01:03;;;;;;;6.82;2.85;;;12.90;93.10;;;;;;5032967;28;20045;-79
2021/10/18 00:03:29;;;;;;;8.98;3.67;;;12.90;93.30;;;;;;5032989;28;20026;-78
2021/10/18 00:05:55;;;;;;;8.82;3.13;;;12.90;92.90;;;;;;5032942;28;20627;-77
2021/10/18 00:08:20;;;;;;;9.70;2.90;;;12.90;92.70;;;;;;5031721;28;20448;-77
2021/10/18 00:10:46;;;;;;;7.75;4.00;;;12.90;92.70;;;;;;5032889;28;20060;-76
2021/10/18 00:13:12;;;;;;;12.25;3.50;;;12.90;92.80;;;;;;5033079;28;20037;-77
2021/10/18 00:15:37;;;;;;;6.18;3.13;;;12.90;92.80;;;;;;5032789;28;20017;-77
2021/10/18 00:18:03;;;;;;;7.18;3.38;;;12.90;92.70;;;;;;5032642;28;20117;-79
2021/10/18 00:20:29;;;;;;;6.90;2.78;;;12.80;92.60;;;;;;5032339;28;20452;-78
2021/10/18 00:22:54;;;;;;;10.85;3.50;;;12.80;92.60;;;;;;5031902;28;20053;-79
2021/10/18 00:25:20;;;;;;;7.88;2.88;;;12.80;92.50;;;;;;5032511;28;20049;-78
2021/10/18 00:27:46;;;;;;;8.63;3.42;;;12.80;92.60;;;;;;5032587;28;20649;-77
2021/10/18 00:30:13;;;;;;;8.48;2.95;;;12.80;92.60;;;;;;5032604;28;20037;-77
2021/10/18 00:32:39;;;;;;;9.90;3.40;;;12.80;92.40;;;;;;5032438;28;20348;-79
2021/10/18 00:35:05;;;;;;;5.97;3.03;;;12.70;92.40;;;;;;5032416;28;20273;-78
2021/10/18 00:37:30;;;;;;;9.02;3.08;;;12.80;92.50;;;;;;5032474;28;20091;-77
2021/10/18 00:39:56;;;;;;;7.90;3.30;;;12.80;92.50;;;;;;5032304;28;20113;-78
2021/10/18 00:42:22;;;;;;;7.82;3.33;;;12.80;92.70;;;;;;5032314;28;20261;-80
2021/10/18 00:44:49;;;;;;;10.93;3.45;;;12.70;92.40;;;;;;5032217;28;20111;-78
2021/10/18 00:47:21;;;;;;;8.80;3.50;;;12.70;92.30;;;;;;5032817;28;20022;-77
2021/10/18 00:49:47;;;;;;;7.88;3.22;;;12.70;92.40;;;;;;5032418;28;20044;-77
2021/10/18 00:52:15;;;;;;;5.43;2.60;;;12.70;92.40;;;;;;5032102;28;20036;-78
2021/10/18 00:54:41;;;;;;;10.55;4.63;;;12.70;92.40;;;;;;5031840;28;20033;-77
2021/10/18 00:57:07;;;;;;;7.63;3.05;;;12.80;92.30;;;;;;5031807;28;20383;-78
2021/10/18 00:59:34;;;;;;;6.05;3.08;;;12.70;92.30;;;;;;5032005;28;20036;-77
2021/10/18 01:02:01;;;;;;;5.10;3.15;;;12.70;92.30;;;;;;5032385;28;20040;-78
2021/10/18 01:04:26;;;;;;;6.95;3.17;;;12.70;92.30;;;;;;5031961;28;20487;-78
2021/10/18 01:06:52;;;;;;;9.38;2.88;;;12.70;92.30;;;;;;5031800;28;20113;-77
2021/10/18 01:09:18;;;;;;;7.00;3.20;;;12.70;92.30;;;;;;5031753;28;20033;-77
2021/10/18 01:11:43;;;;;;;13.32;3.60;;;12.70;92.30;;;;;;5033757;28;20042;-77
2021/10/18 01:14:10;;;;;;;8.60;2.83;;;12.70;92.30;;;;;;5031461;28;20040;-78
2021/10/18 01:16:36;;;;;;;7.45;2.90;;;12.70;92.20;;;;;;5031146;28;20036;-78
2021/10/18 01:19:12;;;;;;;7.72;3.17;;;12.70;92.30;;;;;;5030499;28;20116;-77
2021/10/18 01:21:39;;;;;;;9.73;3.22;;;12.70;92.20;;;;;;5030189;28;20026;-77
2021/10/18 01:24:05;;;;;;;10.77;2.83;;;12.80;92.30;;;;;;5031584;28;20120;-76
2021/10/18 01:26:30;;;;;;;14.68;3.22;;;12.80;92.30;;;;;;5031544;28;20125;-78
2021/10/18 01:28:56;;;;;;;8.77;3.28;;;12.70;92.20;;;;;;5030864;28;20132;-77
2021/10/18 01:31:22;;;;;;;7.88;3.10;;;12.60;92.40;;;;;;5031689;28;20061;-78
2021/10/18 01:33:48;;;;;;;9.70;3.47;;;12.70;92.40;;;;;;5031456;28;20079;-79
2021/10/18 01:36:13;;;;;;;6.28;2.58;;;12.70;92.30;;;;;;5042863;28;20059;-77
2021/10/18 01:38:39;;;;;;;5.05;2.33;;;12.70;92.40;;;;;;5051630;28;20048;-77
2021/10/18 01:41:04;;;;;;;7.45;2.70;;;12.70;92.40;;;;;;5051221;28;20040;-76
2021/10/18 01:43:30;;;;;;;8.48;2.35;;;12.70;92.50;;;;;;5052231;28;20531;-77
2021/10/18 01:45:56;;;;;;;7.63;2.65;;;12.60;92.50;;;;;;5051374;28;20524;-76
2021/10/18 01:48:22;;;;;;;4.97;2.65;;;12.60;92.50;;;;;;5055329;28;20029;-78
2021/10/18 01:50:47;;;;;;;4.10;2.80;;;12.60;92.20;;;;;;5055436;28;20067;-78
2021/10/18 01:53:13;;;;;;;8.27;2.92;;;12.60;92.30;;;;;;5055358;28;20487;-77
2021/10/18 01:55:38;;;;;;;16.95;3.05;;;12.60;92.20;;;;;;5054814;28;20037;-78
2021/10/18 01:58:04;;;;;;;10.98;2.88;;;12.50;92.20;;;;;;5055264;28;20532;-77
2021/10/18 02:00:30;;;;;;;8.13;2.65;;;12.60;92.10;;;;;;5055287;28;20701;-77
2021/10/18 02:02:56;;;;;;;6.68;2.80;;;12.60;92.10;;;;;;5055384;28;20132;-77
2021/10/18 02:05:21;;;;;;;11.63;3.10;;;12.50;92.10;;;;;;5055032;28;20032;-75
2021/10/18 02:07:47;;;;;;;10.25;2.67;;;12.50;92.20;;;;;;5054855;28;20017;-76
2021/10/18 02:10:13;;;;;;;4.47;2.20;;;12.50;92.30;;;;;;5053986;28;20056;-75
2021/10/18 02:12:40;;;;;;;9.90;2.53;;;12.40;92.30;;;;;;5053994;28;20036;-78
2021/10/18 02:15:07;;;;;;;7.72;2.83;;;12.40;92.30;;;;;;5054939;28;20039;-78
2021/10/18 02:17:33;;;;;;;4.25;2.50;;;12.50;92.40;;;;;;5054840;28;20056;-77
2021/10/18 02:19:58;;;;;;;7.15;2.38;;;12.40;92.30;;;;;;5055077;28;20391;-76
2021/10/18 02:22:24;;;;;;;6.05;2.72;;;12.40;92.30;;;;;;5054843;28;20032;-77
2021/10/18 02:24:51;;;;;;;5.60;2.55;;;12.40;92.30;;;;;;5053847;28;20115;-77
2021/10/18 02:27:16;;;;;;;5.50;2.20;;;12.40;92.40;;;;;;5054867;28;20475;-76
2021/10/18 02:29:42;;;;;;;6.43;2.45;;;12.30;92.30;;;;;;5054834;28;20175;-77
2021/10/18 02:32:08;;;;;;;8.30;2.65;;;12.30;92.30;;;;;;5054752;28;20047;-77
2021/10/18 02:34:33;;;;;;;6.68;2.78;;;12.40;92.30;;;;;;5054940;28;20025;-77
2021/10/18 02:36:59;;;;;;;5.35;2.38;;;12.40;92.40;;;;;;5053434;28;20123;-76
2021/10/18 02:39:25;;;;;;;9.77;2.67;;;12.40;92.70;;;;;;5054615;28;20036;-76
2021/10/18 02:41:50;;;;;;;9.60;3.03;;;12.30;92.40;;;;;;5054740;28;20182;-76
2021/10/18 02:44:16;;;;;;;8.13;2.60;;;12.30;92.50;;;;;;5053318;28;20079;-76
2021/10/18 02:46:41;;;;;;;5.88;2.50;;;12.30;92.40;;;;;;5054987;28;20029;-76
2021/10/18 02:49:07;;;;;;;4.32;2.30;;;12.30;92.40;;;;;;5054202;28;20033;-75
2021/10/18 02:51:32;;;;;;;6.65;2.40;;;12.30;92.40;;;;;;5054269;28;20033;-76
2021/10/18 02:53:59;;;;;;;6.65;2.50;;;12.30;92.40;;;;;;5053991;28;20033;-76
2021/10/18 02:56:25;;;;;;;5.85;2.75;;;12.20;92.40;;;;;;5054087;28;20136;-76
2021/10/18 02:58:51;;;;;;;7.32;2.55;;;12.20;92.50;;;;;;5053578;28;20100;-77
2021/10/18 03:01:16;;;;;;;6.40;3.08;;;12.20;92.50;;;;;;5052887;28;20498;-77
2021/10/18 03:03:42;;;;;;;4.43;1.90;;;12.20;92.60;;;;;;5054071;28;20044;-77
2021/10/18 03:06:07;;;;;;;8.73;2.75;;;12.20;92.70;;;;;;5053811;28;20067;-76
2021/10/18 03:08:33;;;;;;;6.70;2.58;;;12.10;92.70;;;;;;5054049;28;20029;-77
2021/10/18 03:10:59;;;;;;;5.50;2.30;;;12.10;92.70;;;;;;5053919;28;20053;-77
2021/10/18 03:13:24;;;;;;;7.07;3.00;;;12.10;92.70;;;;;;5053844;28;20033;-78
2021/10/18 03:15:50;;;;;;;4.95;2.47;;;12.10;92.70;;;;;;5054492;28;20122;-77
2021/10/18 03:18:15;;;;;;;7.47;2.72;;;12.10;92.60;;;;;;5054011;28;20041;-77
2021/10/18 03:20:41;;;;;;;5.10;2.58;;;12.10;92.60;;;;;;5053990;28;20037;-77
2021/10/18 03:23:07;;;;;;;7.82;2.13;;;12.00;92.80;;;;;;5053583;28;20059;-78
2021/10/18 03:25:34;;;;;;;7.22;2.67;;;12.10;92.80;;;;;;5052955;28;20021;-77
2021/10/18 03:28:01;;;;;;;5.85;2.47;;;12.10;92.60;;;;;;5053615;28;20036;-77
2021/10/18 03:30:27;;;;;;;6.93;2.70;;;12.10;92.80;;;;;;5053417;28;20041;-77
2021/10/18 03:32:53;;;;;;;6.88;2.30;;;12.10;92.80;;;;;;5053719;28;20044;-76
2021/10/18 03:35:18;;;;;;;7.15;2.63;;;12.10;92.80;;;;;;5053523;28;20017;-77
2021/10/18 03:37:44;;;;;;;6.80;2.80;;;12.10;92.80;;;;;;5053830;28;20366;-77
2021/10/18 03:40:12;;;;;;;6.38;2.30;;;12.00;92.70;;;;;;5053409;28;20048;-77
2021/10/18 03:42:39;;;;;;;8.15;2.72;;;12.00;92.80;;;;;;5054079;28;20056;-77
2021/10/18 03:45:09;;;;;;;4.78;2.78;;;12.10;92.70;;;;;;5053406;28;20029;-77
2021/10/18 03:47:34;;;;;;;8.15;2.58;;;12.10;92.80;;;;;;5053333;28;20104;-77
2021/10/18 03:50:00;;;;;;;7.90;2.67;;;12.10;92.80;;;;;;5053996;28;20041;-76
2021/10/18 03:52:26;;;;;;;9.82;2.70;;;12.10;92.80;;;;;;5053302;28;20035;-79
2021/10/18 03:54:52;;;;;;;6.68;2.88;;;12.10;92.80;;;;;;5053246;28;20036;-77
2021/10/18 03:57:17;;;;;;;7.70;2.72;;;12.00;92.70;;;;;;5051637;28;20038;-77
2021/10/18 03:59:43;;;;;;;6.70;2.55;;;12.10;92.90;;;;;;5052802;28;20419;-77
2021/10/18 04:02:09;;;;;;;6.32;2.88;;;12.10;92.80;;;;;;5052855;28;20032;-75
2021/10/18 04:04:35;;;;;;;10.10;2.53;;;12.10;92.90;;;;;;5052291;28;20025;-76
2021/10/18 04:07:01;;;;;;;4.63;2.55;;;12.10;92.90;;;;;;5053109;28;20384;-76
2021/10/18 04:09:27;;;;;;;10.43;2.53;;;12.10;92.90;;;;;;5052268;28;20075;-75
2021/10/18 04:11:53;;;;;;;6.13;3.15;;;12.00;92.90;;;;;;5052882;28;20056;-77
2021/10/18 04:14:18;;;;;;;6.00;2.70;;;12.00;92.80;;;;;;5052618;28;20021;-77
2021/10/18 04:16:44;;;;;;;4.38;2.70;;;12.10;93.00;;;;;;5053370;28;20037;-77
2021/10/18 04:19:09;;;;;;;8.88;2.92;;;12.10;92.80;;;;;;5052623;28;20470;-76
2021/10/18 04:21:35;;;;;;;5.88;2.95;;;12.10;92.80;;;;;;5052689;28;20033;-76
2021/10/18 04:24:01;;;;;;;7.03;2.80;;;12.00;92.80;;;;;;5051173;28;20112;-76
2021/10/18 04:26:26;;;;;;;7.05;2.78;;;12.10;92.80;;;;;;5052648;28;20076;-76
2021/10/18 04:28:52;;;;;;;12.75;3.42;;;12.10;92.70;;;;;;5052856;28;20477;-76
2021/10/18 04:31:17;;;;;;;7.28;3.10;;;12.10;92.80;;;;;;5052495;28;20622;-76
2021/10/18 04:33:43;;;;;;;7.97;2.83;;;12.10;92.90;;;;;;5052423;28;20112;-76
2021/10/18 04:36:09;;;;;;;8.55;3.03;;;12.10;92.90;;;;;;5051035;28;20100;-76
2021/10/18 04:38:34;;;;;;;8.98;3.00;;;12.00;93.00;;;;;;5052172;28;20494;-77
2021/10/18 04:41:00;;;;;;;7.07;3.47;;;12.10;92.90;;;;;;5052891;28;20017;-77
2021/10/18 04:43:25;;;;;;;6.75;2.58;;;12.00;92.80;;;;;;5052105;28;20021;-77
2021/10/18 04:45:51;;;;;;;6.78;2.70;;;12.10;93.00;;;;;;5052076;28;20086;-77
2021/10/18 04:48:17;;;;;;;6.80;2.95;;;12.10;92.90;;;;;;5052136;28;20495;-78
2021/10/18 04:50:42;;;;;;;7.78;2.90;;;12.00;93.00;;;;;;5051785;28;20029;-77
2021/10/18 04:53:08;;;;;;;10.80;3.13;;;12.00;93.10;;;;;;5050664;28;20128;-77
2021/10/18 04:55:33;;;;;;;9.00;3.20;;;12.10;93.00;;;;;;5052333;28;20371;-76
2021/10/18 04:58:04;;;;;;;7.68;2.80;;;12.10;92.80;;;;;;5052073;28;20036;-77
2021/10/18 05:00:41;;;;;;;6.88;2.78;;;12.10;92.80;;;;;;5051482;28;20548;-77
2021/10/18 05:03:07;;;;;;;5.53;2.93;;;12.20;92.90;;;;;;5052246;28;20104;-78
2021/10/18 05:05:34;;;;;;;5.90;2.80;;;12.10;92.80;;;;;;5051549;28;20107;-77
2021/10/18 05:08:11;;;;;;;4.47;2.70;;;12.10;92.80;;;;;;5052189;28;20032;-76
2021/10/18 05:10:38;;;;;;;6.68;2.83;;;12.10;92.70;;;;;;5051497;28;20332;-77
2021/10/18 05:13:05;;;;;;;7.97;3.53;;;12.10;92.60;;;;;;5051785;28;20033;-76
2021/10/18 05:15:31;;;;;;;10.02;3.10;;;12.10;92.70;;;;;;5051198;28;20036;-76
2021/10/18 05:17:57;;;;;;;5.35;2.90;;;12.00;92.70;;;;;;5051628;28;20482;-78
2021/10/18 05:20:23;;;;;;;7.85;2.92;;;12.00;92.80;;;;;;5051115;28;20056;-77
2021/10/18 05:22:49;;;;;;;8.50;2.90;;;12.00;92.70;;;;;;5050148;28;20453;-77
2021/10/18 05:25:15;;;;;;;7.07;3.42;;;12.00;92.70;;;;;;5050500;28;20032;-78
2021/10/18 05:27:41;;;;;;;6.55;3.15;;;12.00;92.80;;;;;;5051251;28;20029;-78
2021/10/18 05:30:09;;;;;;;10.50;3.85;;;12.00;92.70;;;;;;5051403;28;20721;-76
2021/10/18 05:32:35;;;;;;;8.52;3.08;;;12.00;92.60;;;;;;5051075;28;20032;-77
2021/10/18 05:35:01;;;;;;;7.78;3.38;;;12.00;92.70;;;;;;5050706;28;20327;-78
2021/10/18 05:37:27;;;;;;;8.48;3.38;;;11.80;92.60;;;;;;5051139;28;20068;-78
2021/10/18 05:39:52;;;;;;;9.23;3.00;;;11.90;92.70;;;;;;5051473;28;20411;-79
2021/10/18 05:42:18;;;;;;;6.65;3.42;;;11.90;92.70;;;;;;5031796;28;20032;-76
2021/10/18 05:44:44;;;;;;;8.70;3.35;;;11.80;92.80;;;;;;5030357;28;20533;-78
2021/10/18 05:47:09;;;;;;;10.40;3.30;;;11.80;93.20;;;;;;5032263;28;20030;-78
2021/10/18 05:49:36;;;;;;;6.82;3.42;;;11.70;93.10;;;;;;5032569;28;20045;-78
2021/10/18 05:52:03;;;;;;;8.63;3.25;;;11.70;93.00;;;;;;5031829;28;20033;-78
2021/10/18 05:54:28;;;;;;;6.57;3.43;;;11.70;93.00;;;;;;5031916;28;20033;-77
2021/10/18 05:56:54;;;;;;;9.50;3.38;;;11.70;92.90;;;;;;5031839;28;20034;-77
2021/10/18 05:59:20;;;;;;;6.70;3.35;;;11.70;92.90;;;;;;5031949;28;20393;-76
2021/10/18 06:01:45;;;;;;;5.93;3.17;;;11.60;93.00;;;;;;5031633;28;20022;-77
2021/10/18 06:04:11;;;;;;;11.45;3.45;;;11.60;93.00;;;;;;5031089;28;20630;-78
2021/10/18 06:06:37;;;;;;;13.48;3.40;;;11.60;93.00;;;;;;5031733;28;20065;-77
2021/10/18 06:09:04;;;;;;;8.50;3.78;;;11.60;93.10;;;;;;5032024;28;20491;-77
2021/10/18 06:11:30;;;;;;;5.93;3.33;;;11.50;93.10;;;;;;5031780;28;20041;-76
2021/10/18 06:13:56;;;;;;;9.18;3.40;;;11.50;93.20;;;;;;5032978;28;20026;-77
2021/10/18 06:16:21;;;;;;;10.52;3.28;;;11.50;93.10;;;;;;5031551;28;20045;-77
2021/10/18 06:18:47;;;;;;;5.55;2.85;;;11.40;93.00;;;;;;5031273;28;20129;-81
2021/10/18 06:21:13;;;;;;;7.68;3.42;;;11.40;93.30;;;;;;5031196;28;20442;-83
2021/10/18 06:23:38;;;;;;;8.32;3.17;;;11.30;93.40;;;;;;5030052;28;20032;-81
2021/10/18 06:26:04;;;;;;;6.95;3.30;;;11.30;93.40;;;;;;5031761;28;20496;-81
2021/10/18 06:28:30;;;;;;;9.10;4.13;;;11.30;93.40;;;;;;5031073;28;20045;-81
2021/10/18 06:30:56;;;;;;;6.65;2.92;;;11.30;93.50;;;;;;5031287;28;20109;-78
2021/10/18 06:33:24;;;;;;;11.73;3.65;;;11.20;93.50;;;;;;5033706;28;20058;-80
2021/10/18 06:35:50;;;;;;;8.60;4.18;;;11.20;93.50;;;;;;5034977;28;20042;-81
2021/10/18 06:38:18;;;;;;;6.78;3.13;;;11.20;93.60;;;;;;5034726;28;20042;-80
2021/10/18 06:40:45;;;;;;;8.18;3.42;;;11.20;93.50;;;;;;5035408;28;20026;-80
2021/10/18 06:43:11;;;;;;;8.63;3.70;;;11.20;93.50;;;;;;5034817;28;20510;-80
2021/10/18 06:45:37;;;;;;;11.75;3.97;;;11.20;93.60;;;;;;5035025;28;20044;-79
2021/10/18 06:48:03;;;;;;;9.48;3.53;;;11.20;93.60;;;;;;5033589;28;20463;-82
2021/10/18 06:50:30;;;;;;;8.85;3.63;;;11.20;93.70;;;;;;5044490;28;20033;-75
2021/10/18 06:52:56;;;;;;;7.82;3.33;;;11.20;93.60;;;;;;5054683;28;20017;-74
2021/10/18 06:55:23;;;;;;;11.50;4.13;;;11.30;93.70;;;;;;5054894;28;20059;-81
2021/10/18 06:57:49;;;;;;;8.10;3.25;;;11.20;93.60;;;;;;5054508;28;20033;-80
2021/10/18 07:00:15;;;;;;;9.15;3.95;;;11.20;93.50;;;;;;5054466;28;20044;-81
2021/10/18 07:02:40;;;;;;;11.75;3.92;;;11.20;93.50;;;;;;5053203;28;20094;-80
2021/10/18 07:05:06;;;;;;;13.10;6.15;;;11.20;93.60;;;;;;5054152;28;20116;-80
2021/10/18 07:07:36;;;;;;;14.00;5.20;;;11.20;93.40;;;;;;5054833;28;20093;-80
2021/10/18 07:10:02;;;;;;;13.73;5.40;;;11.30;93.50;;;;;;5054391;28;20053;-81
2021/10/18 07:12:29;;;;;;;8.05;3.92;;;11.30;93.60;;;;;;5054282;28;20033;-79
2021/10/18 07:14:56;;;;;;;19.52;7.70;;;11.30;93.40;;;;;;5054169;28;20371;-80
2021/10/18 07:17:22;;;;;;;14.23;5.03;;;11.30;93.40;;;;;;5053682;28;20675;-81
2021/10/18 07:19:48;;;;;;;16.70;5.03;;;11.40;93.30;;;;;;5053403;28;20542;-82
2021/10/18 07:22:16;;;;;;;9.32;4.45;;;11.40;93.30;;;;;;5053025;28;20078;-84
2021/10/18 07:24:41;;;;;;;12.07;4.90;;;11.40;93.20;;;;;;5053713;28;20025;-83
2021/10/18 07:27:07;;;;;;;12.07;5.32;;;11.50;93.10;;;;;;5054153;28;20040;-83
2021/10/18 07:29:32;;;;;;;6.65;3.80;;;11.50;93.10;;;;;;5052988;28;20140;-81
2021/10/18 07:31:58;;;;;;;9.55;3.60;;;11.50;93.10;;;;;;5054228;28;20443;-82
2021/10/18 07:34:24;;;;;;;8.70;3.78;;;11.60;93.00;;;;;;5052272;28;20029;-82
2021/10/18 07:36:49;;;;;;;8.35;3.45;;;11.60;93.00;;;;;;5053642;28;20032;-77
2021/10/18 07:39:20;;;;;;;10.23;3.72;;;11.60;92.90;;;;;;5053870;28;20029;-82
2021/10/18 07:41:47;;;;;;;9.65;4.00;;;11.70;92.80;;;;;;5053855;28;20045;-77
2021/10/18 07:44:13;;;;;;;6.60;3.28;;;11.70;92.70;;;;;;5052669;28;20362;-75
2021/10/18 07:46:38;;;;;;;5.53;3.05;;;11.80;92.80;;;;;;5051434;28;20017;-78
2021/10/18 07:49:04;;;;;;;8.85;3.58;;;11.80;92.70;;;;;;5052769;28;20477;-77
2021/10/18 07:51:30;;;;;;;9.45;3.88;;;11.90;92.50;;;;;;5052682;28;20037;-75
2021/10/18 07:53:56;;;;;;;8.50;3.10;;;11.90;92.50;;;;;;5053138;28;20025;-81
2021/10/18 07:56:21;;;;;;;9.75;4.20;;;12.00;92.40;;;;;;5051439;28;20120;-80
2021/10/18 07:58:47;;;;;;;7.85;3.55;;;12.00;92.30;;;;;;5053218;28;20446;-81
2021/10/18 08:01:13;;;;;;;5.82;3.20;;;12.10;92.20;;;;;;5052676;28;20583;-81
2021/10/18 08:03:41;;;;;;;6.38;3.17;;;12.10;92.10;;;;;;5051908;28;20029;-82
2021/10/18 08:06:07;;;;;;;9.40;4.47;;;12.10;91.90;;;;;;5052542;28;20025;-81
2021/10/18 08:08:40;;;;;;;13.75;4.88;;;12.20;91.80;;;;;;5052161;28;20110;-82
2021/10/18 08:11:06;;;;;;;5.53;3.33;;;12.20;91.90;;;;;;5052207;28;20033;-78
2021/10/18 08:13:31;;;;;;;10.23;3.63;;;12.20;91.70;;;;;;5052560;28;20098;-81
2021/10/18 08:15:57;;;;;;;6.88;3.53;;;12.30;91.80;;;;;;5052328;28;20234;-78
2021/10/18 08:18:22;;;;;;;6.60;3.10;;;12.30;91.80;;;;;;5052031;28;20056;-81
2021/10/18 08:20:48;;;;;;;7.35;3.38;;;12.40;91.80;;;;;;5051088;28;20116;-80
2021/10/18 08:23:13;;;;;;;8.65;3.08;;;12.60;91.90;;;;;;5052041;28;20055;-82
2021/10/18 08:25:41;;;;;;;8.73;3.67;;;12.60;91.50;;;;;;5052425;28;20024;-80
2021/10/18 08:28:08;;;;;;;6.03;3.00;;;12.70;91.50;;;;;;5052141;28;20040;-84
2021/10/18 08:30:33;;;;;;;6.40;3.20;;;12.80;91.60;;;;;;5051902;28;20029;-82
2021/10/18 08:32:59;;;;;;;8.02;3.45;;;13.00;91.80;;;;;;5050946;28;20070;-82
2021/10/18 08:35:24;;;;;;;11.07;3.70;;;13.30;91.40;;;;;;5051549;28;20079;-80
2021/10/18 08:40:40;;;;;;;13.45;4.95;;;13.90;91.30;;;;;;5051608;28;20182;-80
2021/10/18 08:43:26;;;;;;;8.35;2.78;;;14.30;90.80;;;;;;5051607;28;20036;-83
2021/10/18 08:45:53;;;;;;;5.95;3.10;;;14.40;89.50;;;;;;5053128;28;20033;-80
2021/10/18 08:48:19;;;;;;;5.63;2.60;;;14.70;89.00;;;;;;5052453;28;20447;-80
2021/10/18 08:50:47;;;;;;;7.32;3.30;;;14.80;89.10;;;;;;5052148;28;20044;-82
2021/10/18 08:53:12;;;;;;;10.93;3.10;;;15.00;88.60;;;;;;5051734;28;20033;-80
2021/10/18 08:55:40;;;;;;;9.00;2.58;;;15.30;87.60;;;;;;5051800;28;20017;-80
2021/10/18 08:58:06;;;;;;;6.15;2.67;;;15.50;87.40;;;;;;5051525;28;20033;-80
2021/10/18 09:00:34;;;;;;;12.15;3.72;;;15.70;86.20;;;;;;5051452;28;20055;-80
2021/10/18 09:03:00;;;;;;;10.32;2.72;;;16.00;86.50;;;;;;5051642;28;20028;-82
2021/10/18 09:05:25;;;;;;;4.80;2.42;;;16.30;86.70;;;;;;5051700;28;20108;-79
2021/10/18 09:07:51;;;;;;;5.60;2.70;;;16.50;84.40;;;;;;5051763;28;20060;-79
2021/10/18 09:10:16;;;;;;;7.15;2.85;;;16.80;84.50;;;;;;5051039;28;20080;-75
2021/10/18 09:12:44;;;;;;;5.13;3.00;;;16.90;83.10;;;;;;5051151;28;20570;-81
2021/10/18 09:15:20;;;;;;;11.67;2.70;;;17.40;83.60;;;;;;5051299;28;20052;-79
2021/10/18 09:17:57;;;;;;;6.80;2.25;;;17.70;82.00;;;;;;5051242;28;20029;-83
2021/10/18 09:20:28;;;;;;;12.00;2.42;;;18.30;81.20;;;;;;5050720;28;20037;-82
2021/10/18 09:23:15;;;;;;;7.80;2.40;;;19.10;81.10;;;;;;5051603;28;20028;-78
2021/10/18 09:25:40;;;;;;;7.10;2.28;;;19.50;76.80;;;;;;5050920;28;20052;-75
2021/10/18 09:28:17;;;;;;;12.27;3.58;;;20.10;76.20;;;;;;5051099;28;20025;-80
2021/10/18 09:30:47;;;;;;;10.38;4.45;;;20.60;74.00;;;;;;5050774;28;20532;-81
2021/10/18 09:33:29;;;;;;;9.82;2.67;;;20.90;72.30;;;;;;5049777;28;20047;-84
2021/10/18 09:35:55;;;;;;;7.25;2.13;;;21.30;71.30;;;;;;5051101;28;20025;-81
2021/10/18 09:38:22;;;;;;;8.95;2.22;;;21.80;70.90;;;;;;5050917;28;20022;-81
2021/10/18 09:40:56;;;;;;;5.10;2.38;;;22.20;70.40;;;;;;5051676;28;20454;-80
2021/10/18 09:43:40;;;;;;;5.13;2.25;;;22.50;68.40;;;;;;5051067;28;20025;-78
2021/10/18 10:51:06;;;;;;;5.30;2.15;;;24.70;57.40;;;;;;5054427;28;20129;-80
2021/10/18 10:56:43;;;;;;;3.88;2.00;;;25.00;57.80;;;;;;5054527;28;20033;-78
2021/10/18 11:02:09;;;;;;;6.80;2.13;;;23.80;57.20;;;;;;5054256;28;20033;-79
2021/10/18 11:04:35;;;;;;;5.00;2.10;;;23.90;57.30;;;;;;5053843;28;20376;-79
2021/10/18 11:07:12;;;;;;;3.05;1.77;;;23.90;56.30;;;;;;5054049;28;20136;-80
2021/10/18 11:09:55;;;;;;;9.23;3.33;;;23.90;56.40;;;;;;5053190;28;20257;-77
2021/10/18 11:12:33;;;;;;;5.93;1.90;;;23.50;55.40;;;;;;5052930;28;20266;-79
2021/10/18 11:15:09;;;;;;;7.00;2.33;;;23.50;56.70;;;;;;5055016;28;20355;-79
2021/10/18 11:17:55;;;;;;;8.15;3.92;;;23.30;57.00;;;;;;5053382;28;20040;-78
2021/10/18 11:20:28;;;;;;;7.57;2.85;;;22.90;57.80;;;;;;5052241;28;20044;-78
2021/10/18 11:22:59;;;;;;;4.88;2.35;;;22.60;57.50;;;;;;5053615;28;20354;-79
2021/10/18 11:25:29;;;;;;;5.70;1.65;;;22.00;57.50;;;;;;5053214;28;20064;-80
2021/10/18 11:28:21;;;;;;;5.38;1.83;;;21.80;57.90;;;;;;5053008;28;20025;-77
2021/10/18 11:30:47;;;;;;;4.35;1.70;;;21.50;58.60;;;;;;5049185;28;20033;-77
2021/10/18 11:33:14;;;;;;;3.10;1.63;;;21.10;59.10;;;;;;5053051;28;20043;-78
2021/10/18 11:35:40;;;;;;;3.53;1.58;;;20.90;59.80;;;;;;5052989;28;20458;-76
2021/10/18 11:38:17;;;;;;;3.95;1.90;;;20.60;60.40;;;;;;5053084;28;20044;-78
2021/10/18 11:40:48;;;;;;;3.95;1.92;;;20.50;61.30;;;;;;5053279;28;20021;-76
2021/10/18 11:43:22;;;;;;;4.03;1.70;;;20.30;61.70;;;;;;5051763;28;20391;-77
2021/10/18 11:45:53;;;;;;;3.33;1.92;;;20.30;62.40;;;;;;5052739;28;20033;-76
2021/10/18 11:48:21;;;;;;;4.43;1.80;;;20.10;62.50;;;;;;5051537;28;20451;-77
2021/10/18 11:50:52;;;;;;;5.13;1.65;;;19.90;61.90;;;;;;5052706;28;20039;-79
2021/10/18 11:53:22;;;;;;;3.42;2.05;;;19.70;62.50;;;;;;5052940;28;20463;-78
2021/10/18 11:55:50;;;;;;;4.78;1.67;;;19.50;62.00;;;;;;5052901;28;20029;-77
2021/10/18 11:58:22;;;;;;;3.63;2.00;;;19.30;62.40;;;;;;5052778;28;20370;-79
2021/10/18 12:00:56;;;;;;;4.75;2.13;;;19.20;62.50;;;;;;5052347;28;20486;-78
2021/10/18 12:03:22;;;;;;;3.63;1.30;;;19.30;63.20;;;;;;5051663;28;20534;-77
2021/10/18 12:05:50;;;;;;;5.32;1.60;;;19.30;63.20;;;;;;5052629;28;20139;-77
2021/10/18 12:08:20;;;;;;;2.25;1.42;;;19.10;62.20;;;;;;5052408;28;20052;-79
2021/10/18 12:10:51;;;;;;;4.57;1.73;;;18.90;62.40;;;;;;5052352;28;20053;-77
2021/10/18 12:13:33;;;;;;;5.88;1.52;;;18.90;62.80;;;;;;5052376;28;20029;-78
2021/10/18 12:16:14;;;;;;;3.30;1.88;;;18.90;62.90;;;;;;5052172;28;20478;-77
2021/10/18 12:18:49;;;;;;;6.07;2.35;;;19.00;64.00;;;;;;5050864;28;20033;-77
2021/10/18 12:21:23;;;;;;;2.85;1.60;;;18.90;64.30;;;;;;5052698;28;20094;-78
2021/10/18 12:23:56;;;;;;;6.00;1.80;;;18.80;65.10;;;;;;5052081;28;20029;-77
2021/10/18 12:26:25;;;;;;;8.60;1.80;;;18.90;66.20;;;;;;5052125;28;20036;-75
2021/10/18 12:28:51;;;;;;;5.57;2.13;;;18.80;66.30;;;;;;5051363;28;20052;-75
2021/10/18 12:31:25;;;;;;;7.68;1.95;;;18.60;65.80;;;;;;5051497;28;20105;-74
2021/10/18 12:34:06;;;;;;;4.18;1.80;;;18.60;66.10;;;;;;5051703;28;20044;-77
2021/10/18 12:36:45;;;;;;;7.25;2.08;;;18.50;66.50;;;;;;5050775;28;20414;-76
2021/10/18 12:39:11;;;;;;;4.78;2.28;;;18.50;66.50;;;;;;5051635;28;20028;-76
2021/10/18 12:41:43;;;;;;;6.95;2.03;;;18.40;66.40;;;;;;5050635;28;20029;-75
2021/10/18 12:44:12;;;;;;;4.28;1.98;;;18.30;66.40;;;;;;5051294;28;20430;-76
2021/10/18 12:46:40;;;;;;;5.53;1.88;;;18.20;66.30;;;;;;5051060;28;20094;-75
2021/10/18 12:49:07;;;;;;;5.57;2.13;;;18.10;67.00;;;;;;5051668;28;20033;-74
2021/10/18 12:51:38;;;;;;;4.35;1.90;;;18.00;66.30;;;;;;5051757;28;20021;-75
2021/10/18 12:54:19;;;;;;;4.22;2.10;;;17.90;66.30;;;;;;5051283;28;20032;-76
2021/10/18 12:56:54;;;;;;;5.82;1.80;;;17.80;67.10;;;;;;5051327;28;20052;-75
2021/10/18 12:59:20;;;;;;;6.65;2.30;;;17.90;67.00;;;;;;5050170;28;20044;-75
2021/10/18 13:01:46;;;;;;;5.75;2.00;;;17.90;67.10;;;;;;5051705;28;20449;-75
2021/10/18 13:04:18;;;;;;;5.55;2.15;;;17.90;67.40;;;;;;5051283;28;20469;-76
2021/10/18 13:06:44;;;;;;;3.00;1.98;;;17.80;67.20;;;;;;5051358;28;20115;-75
2021/10/18 13:09:09;;;;;;;5.88;2.55;;;17.80;66.70;;;;;;5051265;28;20136;-74
2021/10/18 13:11:40;;;;;;;5.57;1.83;;;17.80;67.60;;;;;;5050902;28;20064;-74
2021/10/18 13:14:06;;;;;;;4.18;1.85;;;17.80;68.40;;;;;;5050794;28;20054;-75
2021/10/18 13:16:32;;;;;;;3.15;1.73;;;17.90;67.30;;;;;;5051588;28;20039;-75
2021/10/18 13:18:58;;;;;;;5.88;2.05;;;17.90;67.50;;;;;;5050963;28;20132;-75
2021/10/18 13:21:23;;;;;;;2.65;1.90;;;17.90;68.40;;;;;;5050883;28;20025;-74
2021/10/18 13:23:49;;;;;;;6.15;2.45;;;17.90;67.70;;;;;;5051026;28;20025;-75
2021/10/18 13:26:15;;;;;;;8.43;2.30;;;17.70;67.10;;;;;;5051008;28;20155;-74
2021/10/18 13:28:41;;;;;;;3.40;1.85;;;17.60;67.40;;;;;;5050211;28;20059;-75
2021/10/18 13:31:08;;;;;;;9.10;1.95;;;17.60;67.70;;;;;;5050786;28;20156;-74
2021/10/18 13:33:33;;;;;;;10.52;2.75;;;17.50;68.20;;;;;;5051128;28;20025;-74
2021/10/18 13:36:00;;;;;;;8.40;2.47;;;17.60;68.80;;;;;;5050717;28;20086;-75
2021/10/18 13:38:25;;;;;;;6.40;2.45;;;17.70;68.70;;;;;;5051023;28;20044;-76
2021/10/18 13:40:51;;;;;;;6.05;1.65;;;17.60;68.90;;;;;;5051632;28;20029;-77
2021/10/18 13:43:18;;;;;;;3.75;2.10;;;17.60;69.50;;;;;;5050431;28;20029;-77
2021/10/18 13:45:43;;;;;;;5.93;1.92;;;17.70;70.40;;;;;;5050772;28;20033;-78
2021/10/18 13:48:09;;;;;;;8.88;2.20;;;17.60;70.70;;;;;;5050703;28;20044;-76
2021/10/18 13:50:35;;;;;;;5.28;2.05;;;17.50;70.30;;;;;;5050758;28;20040;-76
2021/10/18 13:53:00;;;;;;;10.82;1.88;;;17.50;70.90;;;;;;5051242;28;20021;-77
2021/10/18 13:55:27;;;;;;;2.20;1.75;;;17.50;72.20;;;;;;5050965;28;20405;-76
2021/10/18 13:57:53;;;;;;;3.42;2.00;;;17.50;72.90;;;;;;5050612;28;20209;-77
2021/10/18 14:00:19;;;;;;;6.88;1.98;;;17.50;73.10;;;;;;5050528;28;20033;-75